Time;durP1;ratioP1;P1;durP2;ratioP2;P2;SDS_P1;SDS_P2;PMS_P1;PMS_P2;Temp;Humidity;BMP_temperature;BMP_pressure;BME280_temperature;BME280_humidity;BME280_pressure;Samples;Min_cycle;Max_cycle;Signal;HPM_P1;HPM_P2
2021/03/07 00:00:30;;;;;;;4.28;3.00;;;;;;;0.56;51.08;101578.09;5009258;28;20046;-70
2021/03/07 00:02:55;;;;;;;6.03;3.30;;;;;;;0.48;51.45;101567.97;5009729;28;20499;-70
2021/03/07 00:05:21;;;;;;;4.60;2.85;;;;;;;0.42;53.12;101568.22;5008886;28;20033;-70
2021/03/07 00:07:48;;;;;;;5.40;3.30;;;;;;;0.47;51.35;101562.84;5009097;28;20332;-70
2021/03/07 00:10:17;;;;;;;5.15;3.28;;;;;;;0.56;50.87;101562.47;5005542;28;20050;-70
2021/03/07 00:12:43;;;;;;;5.45;3.42;;;;;;;0.70;50.01;101556.72;5007915;28;20030;-69
2021/03/07 00:15:11;;;;;;;4.60;2.92;;;;;;;0.76;49.85;101556.44;5010617;28;20135;-70
2021/03/07 00:17:38;;;;;;;5.03;3.20;;;;;;;0.74;49.80;101553.03;5007190;28;20187;-70
2021/03/07 00:20:05;;;;;;;5.38;3.38;;;;;;;0.74;49.56;101553.91;5006596;28;20034;-71
2021/03/07 00:22:31;;;;;;;5.43;3.30;;;;;;;0.72;49.92;101552.28;5009130;28;20385;-70
2021/03/07 00:24:56;;;;;;;4.07;2.70;;;;;;;0.69;50.71;101549.78;5008387;28;20034;-69
2021/03/07 00:27:21;;;;;;;5.53;2.90;;;;;;;0.67;49.98;101554.22;5009789;28;20068;-69
2021/03/07 00:29:47;;;;;;;5.60;2.83;;;;;;;0.61;50.44;101550.94;5008110;28;20030;-70
2021/03/07 00:32:12;;;;;;;5.55;2.60;;;;;;;0.56;50.80;101560.69;5008264;28;20049;-70
2021/03/07 00:34:38;;;;;;;4.35;2.65;;;;;;;0.49;50.78;101558.41;5009222;28;20041;-70
2021/03/07 00:37:03;;;;;;;4.20;2.60;;;;;;;0.42;51.08;101557.81;5007231;28;20034;-69
2021/03/07 00:39:30;;;;;;;5.28;2.58;;;;;;;0.34;51.55;101558.13;5007734;28;20450;-70
2021/03/07 00:41:56;;;;;;;3.38;2.35;;;;;;;0.26;53.49;101556.72;5001401;28;20376;-70
2021/03/07 00:44:21;;;;;;;5.82;2.50;;;;;;;0.13;53.22;101548.56;5008963;28;20048;-70
2021/03/07 00:46:47;;;;;;;4.30;2.72;;;;;;;0.14;52.46;101550.25;5009360;28;20037;-70
2021/03/07 00:49:16;;;;;;;4.38;2.30;;;;;;;0.05;52.19;101545.38;5009025;28;20053;-70
2021/03/07 00:51:42;;;;;;;4.00;2.53;;;;;;;-0.02;52.48;101542.19;5009377;28;20503;-70
2021/03/07 00:54:07;;;;;;;4.75;2.80;;;;;;;-0.03;52.24;101543.09;5008415;28;20060;-70
2021/03/07 00:56:32;;;;;;;3.85;2.60;;;;;;;-0.01;52.46;101547.31;5008125;28;20035;-70
2021/03/07 00:58:57;;;;;;;4.20;2.15;;;;;;;-0.12;54.10;101541.72;5007732;28;20207;-70
2021/03/07 01:01:23;;;;;;;4.68;2.80;;;;;;;-0.36;55.40;101548.66;5009563;28;20033;-70
2021/03/07 01:03:48;;;;;;;4.43;3.17;;;;;;;-0.55;56.88;101542.44;5009504;28;20056;-70
2021/03/07 01:06:14;;;;;;;6.57;3.58;;;;;;;-0.66;57.28;101537.63;5015085;28;20285;-70
2021/03/07 01:08:39;;;;;;;3.58;2.10;;;;;;;-0.68;56.36;101542.88;5016091;28;20058;-70
2021/03/07 01:11:05;;;;;;;3.78;2.20;;;;;;;-0.66;57.12;101535.88;5009319;28;20125;-69
2021/03/07 01:13:30;;;;;;;4.75;3.30;;;;;;;-0.38;54.36;101534.00;5009499;28;20048;-70
2021/03/07 01:15:57;;;;;;;4.40;2.92;;;;;;;-0.22;53.76;101535.97;5009930;28;20057;-70
2021/03/07 01:18:23;;;;;;;5.05;3.03;;;;;;;-0.06;53.46;101532.81;5007219;28;20030;-70
2021/03/07 01:20:49;;;;;;;4.38;2.65;;;;;;;0.03;52.67;101526.44;5012801;28;20037;-69
2021/03/07 01:23:19;;;;;;;4.50;2.50;;;;;;;0.01;53.92;101530.84;5008301;28;20042;-70
2021/03/07 01:25:45;;;;;;;2.90;2.13;;;;;;;-0.01;53.14;101520.47;5008703;28;20030;-69
2021/03/07 01:28:12;;;;;;;3.78;2.35;;;;;;;0.00;52.74;101522.19;5007811;28;20042;-69
2021/03/07 01:30:40;;;;;;;5.25;3.20;;;;;;;0.10;52.03;101513.13;5009935;28;20150;-70
2021/03/07 01:33:07;;;;;;;3.90;2.40;;;;;;;0.08;52.56;101511.50;5008204;28;20042;-69
2021/03/07 01:35:34;;;;;;;5.47;3.28;;;;;;;0.17;51.67;101518.94;5009398;28;20034;-69
2021/03/07 01:38:01;;;;;;;4.88;3.22;;;;;;;0.24;51.33;101519.50;5007447;28;20058;-69
2021/03/07 01:40:31;;;;;;;3.55;2.50;;;;;;;0.25;51.32;101511.66;5007635;28;20406;-69
2021/03/07 01:42:59;;;;;;;5.45;2.95;;;;;;;0.23;51.48;101510.03;5009791;28;20403;-69
2021/03/07 01:45:28;;;;;;;7.43;2.58;;;;;;;0.13;51.89;101512.16;5009591;28;20041;-69
2021/03/07 01:47:57;;;;;;;4.07;2.45;;;;;;;0.02;51.87;101502.16;5008695;28;20407;-69
2021/03/07 01:50:26;;;;;;;4.78;2.95;;;;;;;-0.04;52.08;101505.84;5009890;28;20037;-69
2021/03/07 01:52:53;;;;;;;4.53;2.55;;;;;;;-0.23;54.41;101505.72;5010289;28;20041;-69
2021/03/07 01:55:23;;;;;;;5.65;2.80;;;;;;;-0.29;54.90;101503.34;5008038;28;20139;-69
2021/03/07 01:57:57;;;;;;;4.13;2.87;;;;;;;-0.33;53.77;101501.78;5007858;28;20041;-69
2021/03/07 02:00:22;;;;;;;4.03;2.75;;;;;;;-0.49;55.35;101496.28;5008234;28;20077;-69
2021/03/07 02:02:49;;;;;;;3.65;2.30;;;;;;;-0.58;58.92;101483.66;5007917;28;20442;-70
2021/03/07 02:05:17;;;;;;;4.25;2.40;;;;;;;-0.63;56.96;101482.13;4994679;28;20053;-69
2021/03/07 02:07:44;;;;;;;4.50;2.80;;;;;;;-0.69;59.26;101484.06;5005008;28;20042;-69
2021/03/07 02:10:15;;;;;;;6.53;3.20;;;;;;;-0.81;58.98;101473.25;5009652;28;20125;-70
2021/03/07 02:12:41;;;;;;;;;;;;;;;-0.82;59.93;101477.59;5014940;28;20507;-70
2021/03/07 02:15:12;;;;;;;3.75;2.30;;;;;;;-0.80;57.98;101475.78;5012761;28;19952;-69
2021/03/07 02:17:39;;;;;;;5.30;2.63;;;;;;;-0.88;57.48;101475.25;5013437;28;20509;-69
2021/03/07 02:20:07;;;;;;;6.88;2.90;;;;;;;-0.86;56.57;101468.22;5012314;28;20034;-69
2021/03/07 02:22:43;;;;;;;3.88;2.60;;;;;;;-0.94;56.29;101468.50;5012394;28;20048;-69
2021/03/07 02:25:15;;;;;;;3.78;2.28;;;;;;;-1.00;59.23;101465.25;5013064;28;20113;-69
2021/03/07 02:27:40;;;;;;;3.28;2.20;;;;;;;-1.07;59.12;101462.06;5015205;28;20038;-69
2021/03/07 02:30:10;;;;;;;3.63;2.42;;;;;;;-1.07;58.09;101464.66;5012032;28;20113;-70
2021/03/07 02:32:43;;;;;;;4.00;2.30;;;;;;;-1.13;60.73;101460.50;5010150;28;20121;-69
2021/03/07 02:35:18;;;;;;;2.70;1.90;;;;;;;-1.19;60.46;101447.78;5020845;28;20040;-69
2021/03/07 02:37:52;;;;;;;4.88;2.78;;;;;;;-1.19;58.08;101447.78;5013964;28;20454;-69
2021/03/07 02:40:22;;;;;;;3.22;2.00;;;;;;;-1.24;60.55;101449.69;5006031;28;20033;-69
2021/03/07 02:42:53;;;;;;;4.50;2.25;;;;;;;-1.24;59.15;101435.84;5010976;28;20025;-69
2021/03/07 02:45:22;;;;;;;3.13;1.95;;;;;;;-1.23;58.17;101424.56;5011251;28;20440;-69
2021/03/07 02:47:51;;;;;;;4.35;2.83;;;;;;;-1.17;57.44;101425.22;5010120;28;20506;-69
2021/03/07 02:50:26;;;;;;;4.60;2.80;;;;;;;-1.02;56.32;101417.78;5030258;28;20083;-69
2021/03/07 02:53:04;;;;;;;5.28;3.00;;;;;;;-0.95;55.95;101417.50;5026719;28;20041;-69
2021/03/07 02:55:34;;;;;;;4.43;2.70;;;;;;;-0.83;55.54;101410.13;5004567;28;20040;-69
2021/03/07 02:58:07;;;;;;;4.93;3.13;;;;;;;-0.81;55.30;101406.59;5011117;28;20100;-69
2021/03/07 03:00:37;;;;;;;5.80;2.75;;;;;;;-0.78;55.13;101405.63;5015080;28;20040;-69
2021/03/07 03:03:10;;;;;;;4.43;2.72;;;;;;;-0.69;54.94;101398.34;5023325;28;20565;-69
2021/03/07 03:05:39;;;;;;;4.65;3.20;;;;;;;-0.68;54.72;101394.00;5023151;28;20045;-69
2021/03/07 03:08:07;;;;;;;7.70;3.65;;;;;;;-0.70;54.98;101393.19;5011114;28;20056;-70
2021/03/07 03:10:35;;;;;;;4.25;2.70;;;;;;;-0.67;54.42;101390.47;5010270;28;20030;-69
2021/03/07 03:13:03;;;;;;;4.65;3.08;;;;;;;-0.63;54.27;101392.06;5009746;28;20038;-69
2021/03/07 03:15:30;;;;;;;5.53;2.88;;;;;;;-0.70;54.97;101385.41;5011660;28;20113;-69
2021/03/07 03:17:57;;;;;;;4.30;2.70;;;;;;;-0.90;55.98;101381.81;5010817;28;20036;-69
2021/03/07 03:20:24;;;;;;;5.80;3.08;;;;;;;-0.91;55.80;101387.91;5011070;28;20065;-69
2021/03/07 03:22:50;;;;;;;3.83;2.60;;;;;;;-0.93;55.63;101381.94;5010782;28;20037;-69
2021/03/07 03:25:16;;;;;;;4.05;2.72;;;;;;;-0.84;55.35;101379.88;5011381;28;20034;-69
2021/03/07 03:27:42;;;;;;;5.32;2.40;;;;;;;-0.89;55.92;101378.31;5011458;28;20491;-69
2021/03/07 03:30:14;;;;;;;4.60;2.33;;;;;;;-0.98;56.69;101381.25;5010624;28;20460;-70
2021/03/07 03:32:40;;;;;;;5.47;2.70;;;;;;;-1.03;56.78;101372.78;5010347;28;20034;-69
2021/03/07 03:35:08;;;;;;;4.43;3.10;;;;;;;-1.18;58.04;101374.19;5011048;28;20099;-69
2021/03/07 03:37:34;;;;;;;5.10;2.83;;;;;;;-1.24;58.25;101371.84;5016720;28;20121;-69
2021/03/07 03:40:00;;;;;;;4.28;2.85;;;;;;;-1.12;57.00;101370.50;5019010;28;20348;-69
2021/03/07 03:42:26;;;;;;;4.57;2.78;;;;;;;-1.08;56.65;101367.75;5010463;28;20069;-68
2021/03/07 03:44:52;;;;;;;5.22;2.90;;;;;;;-1.00;56.25;101364.03;5010886;28;20564;-69
2021/03/07 03:47:19;;;;;;;3.65;2.47;;;;;;;-1.04;56.38;101367.66;5010177;28;20658;-69
2021/03/07 03:49:57;;;;;;;3.97;2.55;;;;;;;-1.09;57.41;101370.44;5009502;28;20034;-69
2021/03/07 03:52:23;;;;;;;4.72;2.95;;;;;;;-1.14;58.57;101372.34;5009895;28;20048;-69
2021/03/07 03:55:08;;;;;;;4.90;2.90;;;;;;;-1.07;56.41;101371.22;5010502;28;20030;-69
2021/03/07 03:57:35;;;;;;;3.60;2.90;;;;;;;-1.07;56.29;101379.00;5010433;28;20029;-69
2021/03/07 04:00:02;;;;;;;4.18;2.83;;;;;;;-1.03;56.28;101377.13;5009131;28;20132;-69
2021/03/07 04:02:28;;;;;;;4.90;2.83;;;;;;;-1.03;56.41;101383.16;5010097;28;20041;-69
2021/03/07 04:04:56;;;;;;;4.90;2.55;;;;;;;-1.07;56.25;101379.84;5023634;28;20033;-69
2021/03/07 04:07:24;;;;;;;5.47;3.30;;;;;;;-1.01;56.05;101375.31;5010323;28;20022;-69
2021/03/07 04:09:52;;;;;;;5.57;3.00;;;;;;;-1.03;56.26;101379.72;5011577;28;20037;-69
2021/03/07 04:12:19;;;;;;;5.63;2.88;;;;;;;-1.05;56.17;101387.56;5010149;28;20026;-69
2021/03/07 04:14:46;;;;;;;4.57;2.55;;;;;;;-1.07;55.98;101382.44;5013248;28;20072;-69
2021/03/07 04:17:11;;;;;;;6.13;2.90;;;;;;;-1.02;55.39;101379.69;5010178;28;20044;-69
2021/03/07 04:19:39;;;;;;;4.65;2.55;;;;;;;-0.96;54.88;101383.78;5021664;28;20097;-69
2021/03/07 04:22:05;;;;;;;4.43;2.88;;;;;;;-0.84;53.95;101380.72;5010360;28;20029;-69
2021/03/07 04:24:30;;;;;;;4.65;2.90;;;;;;;-0.75;53.34;101380.38;4990265;28;20065;-69
2021/03/07 04:26:57;;;;;;;4.47;2.78;;;;;;;-0.68;53.23;101386.19;4998619;28;20038;-69
2021/03/07 04:29:23;;;;;;;6.22;2.85;;;;;;;-0.60;52.74;101378.09;4994068;28;20499;-69
2021/03/07 04:31:48;;;;;;;5.03;2.70;;;;;;;-0.54;52.37;101383.06;5001325;28;20046;-69
2021/03/07 04:34:14;;;;;;;5.13;2.80;;;;;;;-0.61;52.66;101377.25;5008525;28;20033;-70
2021/03/07 04:36:41;;;;;;;3.78;2.47;;;;;;;-0.60;52.75;101378.09;5009846;28;20061;-69
2021/03/07 04:39:07;;;;;;;4.32;2.70;;;;;;;-0.58;52.73;101382.34;5010016;28;20034;-69
2021/03/07 04:41:32;;;;;;;3.65;2.45;;;;;;;-0.65;52.89;101373.94;5012024;28;20037;-69
2021/03/07 04:43:57;;;;;;;4.97;2.72;;;;;;;-0.69;53.18;101374.97;5013149;28;20084;-69
2021/03/07 04:46:26;;;;;;;4.05;2.33;;;;;;;-0.88;55.37;101386.97;5009191;28;20042;-69
2021/03/07 04:48:53;;;;;;;3.58;2.30;;;;;;;-1.07;56.09;101384.19;5001786;28;20038;-69
2021/03/07 04:51:18;;;;;;;3.03;2.20;;;;;;;-1.22;56.37;101385.56;5009394;28;20059;-69
2021/03/07 04:53:44;;;;;;;6.47;2.65;;;;;;;-1.30;56.49;101385.84;5010181;28;20061;-69
2021/03/07 04:56:09;;;;;;;5.68;2.60;;;;;;;-1.39;56.80;101383.59;5010480;28;20041;-69
2021/03/07 04:58:36;;;;;;;5.13;2.85;;;;;;;-1.40;56.20;101394.88;5014048;28;20293;-69
2021/03/07 05:01:02;;;;;;;5.32;3.30;;;;;;;-1.41;57.42;101392.31;5006807;28;20076;-68
2021/03/07 05:03:27;;;;;;;4.95;2.90;;;;;;;-1.44;57.03;101382.91;5009990;28;20491;-69
2021/03/07 05:05:53;;;;;;;4.57;2.67;;;;;;;-1.48;57.69;101390.84;5009222;28;20036;-69
2021/03/07 05:08:19;;;;;;;4.85;3.00;;;;;;;-1.57;58.25;101390.28;5007440;28;20034;-69
2021/03/07 05:10:44;;;;;;;4.90;3.03;;;;;;;-1.55;58.07;101390.19;5004851;28;20113;-69
2021/03/07 05:13:09;;;;;;;7.03;3.20;;;;;;;-1.55;58.14;101391.06;5019300;28;20263;-69
2021/03/07 05:15:35;;;;;;;7.55;4.82;;;;;;;-1.64;58.28;101385.38;5015435;28;20049;-69
2021/03/07 05:18:00;;;;;;;9.05;4.90;;;;;;;-1.69;58.36;101390.69;5009139;28;20057;-69
2021/03/07 05:20:26;;;;;;;5.63;3.58;;;;;;;-1.85;59.68;101385.19;5009688;28;20045;-68
2021/03/07 05:22:51;;;;;;;6.53;4.10;;;;;;;-1.89;59.20;101387.91;5010257;28;20061;-69
2021/03/07 05:25:17;;;;;;;6.43;3.67;;;;;;;-2.01;60.67;101377.06;5015221;28;20099;-68
2021/03/07 05:27:42;;;;;;;6.70;4.07;;;;;;;-2.00;60.31;101378.75;5009899;28;20449;-68
2021/03/07 05:30:08;;;;;;;7.70;4.20;;;;;;;-2.04;60.46;101381.50;5009560;28;20054;-68
2021/03/07 05:32:34;;;;;;;6.70;3.95;;;;;;;-2.00;59.94;101383.06;5010455;28;20030;-69
2021/03/07 05:34:59;;;;;;;5.80;3.50;;;;;;;-1.99;59.70;101380.44;5009066;28;20052;-69
2021/03/07 05:37:24;;;;;;;4.53;2.78;;;;;;;-2.03;60.23;101375.41;5009415;28;20030;-69
2021/03/07 05:39:50;;;;;;;6.05;4.20;;;;;;;-2.05;60.33;101370.28;5024372;28;20045;-67
2021/03/07 05:42:15;;;;;;;6.93;4.25;;;;;;;-2.08;60.25;101377.31;5025581;28;20431;-70
2021/03/07 05:44:41;;;;;;;7.53;4.00;;;;;;;-2.21;61.58;101375.13;5008999;28;20442;-67
2021/03/07 05:47:07;;;;;;;5.72;3.63;;;;;;;-2.21;61.86;101372.53;5004794;28;20030;-69
2021/03/07 05:49:32;;;;;;;5.05;3.15;;;;;;;-2.11;60.67;101370.47;5013102;28;20065;-69
2021/03/07 05:51:59;;;;;;;4.97;3.20;;;;;;;-2.04;60.54;101371.97;5013166;28;20045;-69
2021/03/07 05:54:25;;;;;;;7.00;3.88;;;;;;;-2.01;60.35;101374.47;5012284;28;20119;-69
2021/03/07 05:56:52;;;;;;;4.63;3.15;;;;;;;-1.87;59.68;101362.78;5017970;28;20026;-69
2021/03/07 05:59:17;;;;;;;5.53;3.25;;;;;;;-1.87;59.53;101367.97;5013276;28;20041;-69
2021/03/07 06:01:43;;;;;;;5.10;3.30;;;;;;;-1.76;58.90;101373.66;5023853;28;20041;-69
2021/03/07 06:04:08;;;;;;;6.45;3.60;;;;;;;-1.71;58.76;101363.97;5025268;28;20036;-69
2021/03/07 06:06:34;;;;;;;5.10;3.30;;;;;;;-1.65;58.61;101368.09;5012733;28;20059;-68
2021/03/07 06:09:19;;;;;;;5.78;3.58;;;;;;;-1.65;59.01;101366.34;5005344;28;20569;-69
2021/03/07 06:11:49;;;;;;;7.50;3.53;;;;;;;-1.54;57.76;101368.56;5004824;28;20076;-68
2021/03/07 06:14:19;;;;;;;5.43;3.10;;;;;;;-1.53;57.95;101363.31;5013128;28;20394;-69
2021/03/07 06:17:07;;;;;;;5.03;3.58;;;;;;;-1.37;56.89;101361.03;5017059;28;20569;-69
2021/03/07 06:20:02;;;;;;;6.18;3.20;;;;;;;-1.37;57.13;101362.78;5012607;28;20120;-69
2021/03/07 06:22:29;;;;;;;5.50;3.65;;;;;;;-1.42;57.07;101362.13;5010775;28;20034;-69
2021/03/07 06:24:55;;;;;;;4.88;3.28;;;;;;;-1.45;57.38;101362.19;5012682;28;20574;-69
2021/03/07 06:27:21;;;;;;;6.07;3.67;;;;;;;-1.35;56.95;101359.25;5012138;28;20033;-69
2021/03/07 06:30:07;;;;;;;5.10;3.22;;;;;;;-1.24;56.64;101363.19;5012821;28;20045;-69
2021/03/07 06:32:34;;;;;;;7.10;4.10;;;;;;;-1.22;56.93;101354.44;5016531;28;20593;-69
2021/03/07 06:35:00;;;;;;;6.60;3.63;;;;;;;-0.89;56.00;101351.50;5012430;28;20062;-69
2021/03/07 06:37:26;;;;;;;6.07;3.60;;;;;;;-0.46;54.40;101357.63;5020607;28;20045;-69
2021/03/07 06:39:52;;;;;;;7.00;3.40;;;;;;;0.03;53.64;101350.44;5012633;28;20045;-68
2021/03/07 06:42:18;;;;;;;4.72;3.20;;;;;;;0.52;51.75;101363.94;5012141;28;20383;-69
2021/03/07 06:44:56;;;;;;;5.97;3.50;;;;;;;0.25;52.56;101358.19;5012036;28;20092;-69
2021/03/07 06:47:23;;;;;;;5.70;3.30;;;;;;;-0.22;53.42;101354.03;5013526;28;20033;-69
2021/03/07 06:49:48;;;;;;;5.88;3.70;;;;;;;-0.32;53.55;101351.88;5012387;28;20030;-69
2021/03/07 06:52:20;;;;;;;7.80;3.70;;;;;;;-0.43;53.92;101349.69;5012285;28;20103;-69
2021/03/07 06:55:06;;;;;;;5.45;3.30;;;;;;;-0.28;53.18;101346.50;5010069;28;20039;-68
2021/03/07 06:57:32;;;;;;;4.22;3.20;;;;;;;0.05;52.61;101343.44;5011044;28;20060;-68
2021/03/07 06:59:57;;;;;;;5.07;3.13;;;;;;;0.99;49.72;101352.34;5010854;28;20040;-68
2021/03/07 07:02:23;;;;;;;5.72;3.53;;;;;;;1.60;48.31;101344.28;5011358;28;20042;-69
2021/03/07 07:04:49;;;;;;;6.88;3.20;;;;;;;2.12;45.95;101341.72;5011410;28;20037;-69
2021/03/07 07:07:17;;;;;;;6.53;3.45;;;;;;;2.31;45.57;101348.56;5011648;28;20061;-69
2021/03/07 07:09:47;;;;;;;5.63;3.28;;;;;;;2.18;45.46;101345.75;5011674;28;20121;-69
2021/03/07 07:12:39;;;;;;;4.18;2.95;;;;;;;2.41;45.32;101346.34;5010580;28;20099;-69
2021/03/07 07:15:10;;;;;;;5.22;3.30;;;;;;;2.97;44.09;101345.13;5010529;28;20030;-68
2021/03/07 07:17:35;;;;;;;;;;;;;;;3.26;43.98;101338.31;5011393;28;20038;-69
2021/03/07 07:20:04;;;;;;;6.30;3.15;;;;;;;3.58;42.52;101338.28;5011520;28;20278;-68
2021/03/07 07:22:29;;;;;;;6.05;3.45;;;;;;;4.31;41.73;101340.19;5016846;28;20029;-69
2021/03/07 07:24:54;;;;;;;5.50;3.20;;;;;;;4.47;41.63;101333.09;5011610;28;20474;-69
2021/03/07 07:27:20;;;;;;;4.63;2.80;;;;;;;4.51;41.70;101336.38;5013618;28;20030;-69
2021/03/07 07:29:45;;;;;;;3.85;2.60;;;;;;;4.44;41.49;101334.13;5011191;28;20033;-69
2021/03/07 07:32:32;;;;;;;5.45;3.45;;;;;;;4.47;41.54;101339.16;5016892;28;20041;-69
2021/03/07 07:35:01;;;;;;;4.88;3.03;;;;;;;4.12;45.28;101336.03;4991990;28;20447;-69
2021/03/07 07:37:45;;;;;;;8.55;5.57;;;;;;;3.95;44.44;101338.78;5012546;28;20034;-69
2021/03/07 07:40:11;;;;;;;11.13;7.18;;;;;;;3.18;46.11;101336.13;5010370;28;20034;-69
2021/03/07 07:42:37;;;;;;;14.25;7.85;;;;;;;2.31;48.66;101333.78;5011138;28;20053;-69
2021/03/07 07:45:12;;;;;;;11.40;7.28;;;;;;;1.91;49.93;101330.56;5011570;28;20034;-69
2021/03/07 07:47:42;;;;;;;12.48;8.30;;;;;;;1.62;51.19;101339.84;5010921;28;20034;-69
2021/03/07 07:50:27;;;;;;;14.63;8.10;;;;;;;1.23;52.58;101337.34;5011650;28;20029;-70
2021/03/07 07:52:53;;;;;;;8.32;5.55;;;;;;;1.03;53.14;101338.28;5013214;28;20293;-69
2021/03/07 07:55:18;;;;;;;9.02;6.05;;;;;;;0.96;53.83;101339.47;5011051;28;20572;-69
2021/03/07 07:57:47;;;;;;;9.07;5.57;;;;;;;0.86;53.27;101336.44;5019753;28;20034;-69
2021/03/07 08:00:46;;;;;;;9.70;6.00;;;;;;;0.41;56.89;101335.81;5011286;28;20070;-69
2021/03/07 08:03:30;;;;;;;9.75;6.20;;;;;;;0.45;56.31;101333.91;4995864;28;20037;-69
2021/03/07 08:05:56;;;;;;;10.25;6.68;;;;;;;0.36;57.07;101334.34;5020667;28;20041;-69
2021/03/07 08:08:30;;;;;;;10.43;6.57;;;;;;;0.51;55.95;101333.66;5009746;28;20041;-69
2021/03/07 08:10:56;;;;;;;12.30;7.38;;;;;;;0.47;56.13;101328.66;5014755;28;20033;-69
2021/03/07 08:13:27;;;;;;;12.23;7.20;;;;;;;0.47;57.01;101328.66;5010590;28;20405;-69
2021/03/07 08:16:03;;;;;;;8.38;5.47;;;;;;;0.41;57.91;101325.41;5010401;28;20038;-69
2021/03/07 08:18:45;;;;;;;13.23;6.05;;;;;;;0.65;56.04;101329.59;5018695;28;20038;-69
2021/03/07 08:21:11;;;;;;;8.48;5.50;;;;;;;0.55;56.48;101323.94;5011520;28;20414;-69
2021/03/07 08:23:54;;;;;;;9.68;6.60;;;;;;;0.49;58.90;101319.84;5010021;28;20046;-69
2021/03/07 08:26:20;;;;;;;10.23;7.15;;;;;;;0.72;57.03;101325.81;5009217;28;20036;-69
2021/03/07 08:28:46;;;;;;;10.10;6.05;;;;;;;0.86;58.22;101331.25;5010591;28;20034;-69
2021/03/07 08:31:17;;;;;;;10.15;6.90;;;;;;;1.85;56.24;101330.03;5010204;28;20399;-69
2021/03/07 08:33:43;;;;;;;10.98;6.70;;;;;;;3.27;54.77;101323.50;5010569;28;20383;-69
2021/03/07 08:36:15;;;;;;;9.25;6.10;;;;;;;4.64;51.02;101327.66;5009468;28;20034;-69
2021/03/07 08:38:53;;;;;;;10.52;6.30;;;;;;;5.50;48.98;101322.25;5009934;28;20566;-69
2021/03/07 08:41:18;;;;;;;8.45;6.05;;;;;;;7.07;45.04;101321.31;5022948;28;20138;-69
2021/03/07 08:43:46;;;;;;;8.20;6.17;;;;;;;7.72;42.16;101328.00;5016534;28;20504;-69
2021/03/07 08:46:12;;;;;;;6.70;4.90;;;;;;;8.00;42.14;101322.34;5018475;28;20280;-70
2021/03/07 08:48:40;;;;;;;8.43;5.55;;;;;;;8.11;41.88;101315.44;5009204;28;20041;-69
2021/03/07 08:51:07;;;;;;;7.53;5.53;;;;;;;8.26;41.37;101320.38;5011280;28;20041;-69
2021/03/07 08:53:35;;;;;;;6.95;4.88;;;;;;;8.56;41.14;101316.38;5010040;28;20740;-69
2021/03/07 08:56:00;;;;;;;6.78;5.20;;;;;;;9.19;39.20;101318.47;5010408;28;20343;-70
2021/03/07 08:58:26;;;;;;;7.80;5.53;;;;;;;9.61;37.70;101310.69;5001354;28;20673;-69
2021/03/07 09:00:54;;;;;;;6.47;4.30;;;;;;;9.64;36.85;101327.09;5005649;28;20029;-69
2021/03/07 09:03:21;;;;;;;9.48;5.32;;;;;;;10.81;34.99;101312.81;5010548;28;20040;-69
2021/03/07 09:05:48;;;;;;;6.53;4.95;;;;;;;10.12;35.04;101308.13;5010400;28;20030;-70
2021/03/07 09:08:14;;;;;;;7.40;5.30;;;;;;;10.66;35.36;101311.50;5008057;28;20109;-69
2021/03/07 09:10:46;;;;;;;6.20;4.60;;;;;;;11.12;34.81;101310.09;5008420;28;20424;-70
2021/03/07 09:13:11;;;;;;;5.70;3.92;;;;;;;11.86;33.51;101306.94;5010677;28;20038;-69
2021/03/07 09:15:38;;;;;;;6.05;4.18;;;;;;;11.82;31.52;101302.94;5009775;28;20494;-70
2021/03/07 09:18:04;;;;;;;6.88;4.35;;;;;;;12.11;32.10;101302.06;5008923;28;20037;-69
2021/03/07 09:20:41;;;;;;;5.00;3.85;;;;;;;11.92;31.77;101296.78;5010734;28;20053;-70
2021/03/07 09:23:20;;;;;;;8.05;4.85;;;;;;;11.23;33.51;101294.13;5013848;28;20057;-70
2021/03/07 09:25:53;;;;;;;6.32;4.32;;;;;;;11.66;32.11;101286.75;5013258;28;20461;-69
2021/03/07 09:28:39;;;;;;;4.65;3.33;;;;;;;11.26;33.00;101287.72;5013511;28;20120;-70
2021/03/07 09:31:09;;;;;;;5.88;4.20;;;;;;;12.00;32.81;101284.50;5013735;28;20140;-70
2021/03/07 09:33:34;;;;;;;5.78;3.92;;;;;;;12.65;31.15;101276.59;5000111;28;20320;-70
2021/03/07 09:36:09;;;;;;;5.93;4.28;;;;;;;13.06;30.50;101282.41;5029363;28;20033;-70
2021/03/07 09:38:45;;;;;;;4.95;3.28;;;;;;;13.57;29.47;101274.78;5017576;28;20501;-70
2021/03/07 09:41:12;;;;;;;5.28;3.90;;;;;;;14.41;28.92;101271.53;5012945;28;20441;-70
2021/03/07 09:43:39;;;;;;;4.32;3.05;;;;;;;14.06;29.88;101272.50;5012168;28;20042;-70
2021/03/07 09:46:05;;;;;;;4.85;3.85;;;;;;;14.96;28.88;101274.78;5012627;28;20045;-68
2021/03/07 09:48:35;;;;;;;4.18;2.90;;;;;;;15.33;28.43;101265.56;5012162;28;20132;-68
2021/03/07 09:51:04;;;;;;;4.60;3.25;;;;;;;14.63;28.54;101264.88;5012180;28;20379;-68
2021/03/07 09:53:31;;;;;;;5.05;3.80;;;;;;;14.44;29.38;101255.28;5012871;28;20034;-68
2021/03/07 09:55:57;;;;;;;5.30;3.90;;;;;;;13.62;30.87;101259.22;5013670;28;20033;-68
2021/03/07 09:58:22;;;;;;;4.75;3.95;;;;;;;12.58;30.66;101249.00;5012226;28;20392;-70
2021/03/07 10:00:50;;;;;;;6.40;4.10;;;;;;;12.68;32.08;101254.25;5010198;28;20093;-68
2021/03/07 10:03:22;;;;;;;4.95;3.00;;;;;;;11.63;32.26;101241.97;5013044;28;20541;-70
2021/03/07 10:06:08;;;;;;;6.45;3.90;;;;;;;11.10;33.08;101240.59;5012700;28;20125;-68
2021/03/07 10:08:36;;;;;;;3.70;3.10;;;;;;;9.60;34.12;101237.69;5011979;28;20061;-68
2021/03/07 10:11:21;;;;;;;5.55;3.17;;;;;;;9.47;36.59;101228.16;5012736;28;20037;-70
2021/03/07 10:14:03;;;;;;;3.63;2.85;;;;;;;10.04;34.82;101231.31;5012699;28;20104;-68
2021/03/07 10:16:31;;;;;;;3.67;2.60;;;;;;;9.98;34.33;101230.00;5010237;28;20042;-70
2021/03/07 10:19:05;;;;;;;5.43;3.38;;;;;;;10.08;33.49;101223.94;5004729;28;20121;-70
2021/03/07 10:21:32;;;;;;;4.20;3.08;;;;;;;9.73;33.97;101218.06;5012124;28;20042;-70
2021/03/07 10:24:06;;;;;;;6.90;3.33;;;;;;;9.43;34.62;101216.19;5011882;28;20125;-70
2021/03/07 10:26:31;;;;;;;4.45;3.00;;;;;;;9.27;33.09;101224.53;5011699;28;20037;-70
2021/03/07 10:28:56;;;;;;;3.75;2.53;;;;;;;9.00;32.46;101218.88;5011481;28;20052;-70
2021/03/07 10:31:22;;;;;;;4.35;3.10;;;;;;;8.68;34.04;101220.50;5009713;28;20064;-70
2021/03/07 10:33:53;;;;;;;4.75;3.08;;;;;;;8.09;35.79;101210.19;5004962;28;20053;-70
2021/03/07 10:36:21;;;;;;;;;;;;;;;8.46;33.86;101217.88;5011832;28;20041;-70
2021/03/07 10:38:49;;;;;;;4.18;3.05;;;;;;;8.23;35.30;101207.31;5011163;28;19914;-69
2021/03/07 10:41:31;;;;;;;5.00;3.40;;;;;;;7.98;35.58;101210.19;5011010;28;20045;-69
2021/03/07 10:43:59;;;;;;;6.07;3.70;;;;;;;8.01;35.44;101205.53;5007485;28;20030;-70
2021/03/07 10:46:31;;;;;;;4.75;3.30;;;;;;;8.18;34.90;101203.38;4998430;28;20117;-69
2021/03/07 10:49:00;;;;;;;4.95;3.30;;;;;;;8.11;33.88;101191.66;5010800;28;20058;-71
2021/03/07 10:51:27;;;;;;;5.55;3.92;;;;;;;8.24;33.41;101195.81;5011131;28;20117;-69
2021/03/07 10:53:53;;;;;;;5.10;3.30;;;;;;;7.93;35.25;101188.63;5010925;28;20249;-69
2021/03/07 10:56:19;;;;;;;5.32;3.40;;;;;;;7.90;34.29;101184.44;5001266;28;20495;-69
2021/03/07 10:58:45;;;;;;;4.93;3.58;;;;;;;8.15;32.97;101183.38;5009327;28;20387;-69
2021/03/07 11:01:15;;;;;;;4.03;3.00;;;;;;;7.95;33.67;101174.38;5010711;28;20034;-69
2021/03/07 11:03:41;;;;;;;4.38;2.72;;;;;;;8.16;33.21;101177.16;5005923;28;20502;-69
2021/03/07 11:06:07;;;;;;;4.00;2.95;;;;;;;7.74;34.65;101170.78;5009769;28;20417;-70
2021/03/07 11:08:33;;;;;;;4.47;3.15;;;;;;;7.53;34.96;101174.09;5009623;28;20046;-69
2021/03/07 11:10:58;;;;;;;3.97;2.50;;;;;;;7.50;35.54;101162.94;5010196;28;20034;-69
2021/03/07 11:13:23;;;;;;;5.10;3.70;;;;;;;7.84;33.14;101158.56;5008289;28;20042;-69
2021/03/07 11:15:49;;;;;;;5.10;3.17;;;;;;;8.09;33.66;101160.97;5008474;28;20126;-69
2021/03/07 11:18:14;;;;;;;5.53;3.85;;;;;;;8.25;32.78;101159.78;5008961;28;20570;-70
2021/03/07 11:20:39;;;;;;;4.93;3.35;;;;;;;8.27;32.59;101158.72;5009072;28;20041;-69
2021/03/07 11:23:05;;;;;;;5.00;3.03;;;;;;;8.15;33.92;101157.03;5009769;28;20066;-69
2021/03/07 11:25:30;;;;;;;4.85;2.85;;;;;;;8.35;32.57;101144.09;5010458;28;20383;-69
2021/03/07 11:27:55;;;;;;;4.28;2.90;;;;;;;8.50;32.31;101143.72;5010055;28;20037;-69
2021/03/07 11:30:21;;;;;;;3.90;2.65;;;;;;;8.59;32.52;101142.16;5009719;28;20041;-70
2021/03/07 11:32:46;;;;;;;5.25;3.47;;;;;;;8.62;32.06;101141.88;5010418;28;20038;-69
2021/03/07 11:35:12;;;;;;;4.40;3.10;;;;;;;8.52;32.26;101134.84;5010655;28;20034;-69